createdAt,value
2022-10-18T00:24:43.404Z,20.23
2022-10-18T00:53:34.834Z,20.22
2022-10-18T01:22:19.626Z,20.22
2022-10-18T01:51:08.868Z,20.21
2022-10-18T02:19:57.903Z,20.2
2022-10-18T02:48:44.569Z,20.16
2022-10-18T03:17:35.421Z,20.16
2022-10-18T03:46:18.747Z,20.15
2022-10-18T04:15:00.220Z,20.13
2022-10-18T04:43:41.925Z,20.11
2022-10-18T05:12:16.489Z,20.09
2022-10-18T05:40:53.997Z,20.08
2022-10-18T06:09:42.114Z,20.08
2022-10-18T06:38:22.433Z,20.07
2022-10-18T07:07:05.336Z,20.09
2022-10-18T07:35:36.378Z,20.16
2022-10-18T08:04:17.016Z,20.23
2022-10-18T08:32:39.621Z,20.25
2022-10-18T09:01:16.385Z,20.25
2022-10-18T09:29:50.494Z,20.27
2022-10-18T09:58:27.595Z,20.3
2022-10-18T10:27:05.763Z,20.32
2022-10-18T10:55:38.392Z,20.33
2022-10-18T11:24:10.343Z,20.36
2022-10-18T11:52:53.167Z,20.37
2022-10-18T12:21:26.701Z,20.39
2022-10-18T12:49:58.275Z,20.43
2022-10-18T13:18:43.943Z,20.45
2022-10-18T13:47:02.224Z,20.5
2022-10-18T14:15:34.959Z,20.51
2022-10-18T14:44:14.001Z,20.55
2022-10-18T15:13:09.578Z,20.56
2022-10-18T15:41:16.840Z,20.57
2022-10-18T16:09:58.179Z,20.56
2022-10-18T16:38:35.584Z,20.57
2022-10-18T17:06:54.466Z,20.55
2022-10-18T17:35:33.717Z,20.53
2022-10-18T18:04:05.117Z,20.53
2022-10-18T18:32:39.062Z,20.51
2022-10-18T19:01:31.294Z,20.48
2022-10-18T19:30:12.188Z,20.44
2022-10-18T19:58:59.062Z,20.44
2022-10-18T20:27:40.249Z,20.41
2022-10-18T20:56:18.057Z,20.38
2022-10-18T21:24:51.218Z,20.36
2022-10-18T22:51:08.167Z,20.31
2022-10-18T23:19:48.497Z,20.32
2022-10-18T23:48:37.671Z,20.3
